CYKJ

Key Lake Airport

Key Lake, Saskatchewan, Canada
METAR CYKJ 222147Z AUTO 32010G20KT 9SM -SN SCT006 OVC012 M01/M02 A2972 RMK SLP094
Observed Flight Rules
Apr-22 @ 21:47 UTC (8 minutes ago) Marginal Visual Flight Rules
Wind Visibility Clouds Conditions
320° at 10 knots
 Gusting to 20 knots
9 miles
  • Scattered at 600' AGL
  • Overcast at 1,200' AGL
  • Light Snow
Temperatures Readings
Current -1°C / 30°F
Dewpoint -2°C / 28°F
Humidity 93%
Altimeter 29.72" Hg
Pressure 1009.4 hPa
Elevation 509
METAR CYKJ 222147Z AUTO 32010G20KT 9SM -SN SCT006 OVC012 M01/M02 A2972 RMK SLP094
Observed Flight Rules
Apr-22 @ 21:47 UTC
(8 minutes ago)
MVFR
Wind Visibility
320° at 10 knots
 Gusting to 20 knots
9 miles
Clouds
  • Scattered at 600' AGL
  • Overcast at 1,200' AGL
Conditions
  • Light Snow
Temperature Dewpoint
-1°C / 30°F -2°C / 28°F
Humidity Altimeter Pressure
93% 29.72" Hg 1009.4 hPa